createdAt,value
2019-03-13T00:02:29.072Z,2.50
2019-03-13T00:05:04.157Z,3.93
2019-03-13T00:07:34.776Z,3.97
2019-03-13T00:10:05.644Z,5.57
2019-03-13T00:12:37.681Z,3.43
2019-03-13T00:15:09.228Z,4.10
2019-03-13T00:17:39.598Z,5.10
2019-03-13T00:20:10.143Z,6.17
2019-03-13T00:22:41.727Z,3.63
2019-03-13T00:25:13.403Z,4.43
2019-03-13T00:27:44.064Z,4.00
2019-03-13T00:30:15.581Z,7.67
2019-03-13T00:32:47.502Z,10.80
2019-03-13T00:35:20.201Z,5.43
2019-03-13T00:37:50.777Z,11.73
2019-03-13T00:40:22.506Z,4.90
2019-03-13T00:42:53.254Z,6.17
2019-03-13T00:45:23.653Z,11.07
2019-03-13T00:47:57.388Z,4.83
2019-03-13T00:50:31.856Z,9.83
2019-03-13T00:53:02.255Z,10.53
2019-03-13T00:55:32.643Z,10.70
2019-03-13T00:58:03.122Z,9.07
2019-03-13T01:00:50.432Z,11.23
2019-03-13T01:03:36.533Z,14.27
2019-03-13T01:06:12.596Z,14.77
2019-03-13T01:08:43.014Z,14.50
2019-03-13T01:11:13.478Z,6.43
2019-03-13T01:13:44.074Z,9.83
2019-03-13T01:16:14.396Z,8.40
2019-03-13T01:18:44.751Z,9.33
2019-03-13T01:21:15.279Z,6.80
2019-03-13T01:23:45.643Z,9.03
2019-03-13T01:26:15.938Z,7.10
2019-03-13T01:28:46.264Z,8.30
2019-03-13T01:31:35.223Z,12.20
2019-03-13T01:34:24.598Z,9.00
2019-03-13T01:36:55.174Z,11.17
2019-03-13T01:39:25.485Z,9.87
2019-03-13T01:41:55.954Z,11.67
2019-03-13T01:44:26.326Z,10.60
2019-03-13T01:46:59.091Z,7.40
2019-03-13T01:49:30.028Z,7.83
2019-03-13T01:52:00.458Z,7.93
2019-03-13T01:54:30.981Z,15.13
2019-03-13T01:57:01.426Z,12.10
2019-03-13T01:59:33.022Z,11.87
2019-03-13T02:02:03.907Z,10.97
2019-03-13T02:04:34.592Z,13.97
2019-03-13T02:07:05.334Z,12.20
2019-03-13T02:09:35.881Z,11.23
2019-03-13T02:12:06.159Z,7.80
2019-03-13T02:14:36.539Z,11.20
2019-03-13T02:17:07.644Z,6.50
2019-03-13T02:19:38.203Z,12.37
2019-03-13T02:22:08.793Z,13.87
2019-03-13T02:24:39.303Z,21.00
2019-03-13T02:27:09.774Z,11.67
2019-03-13T02:29:40.498Z,10.03
2019-03-13T02:32:10.995Z,13.27
2019-03-13T02:34:43.081Z,11.43
2019-03-13T02:37:19.324Z,16.87
2019-03-13T02:39:50.167Z,8.37
2019-03-13T02:42:20.665Z,13.83
2019-03-13T02:44:51.144Z,12.47
2019-03-13T02:47:21.605Z,19.13
2019-03-13T02:49:52.056Z,12.27
2019-03-13T02:52:24.674Z,20.20
2019-03-13T02:54:55.199Z,20.27
2019-03-13T02:57:25.939Z,12.60
2019-03-13T02:59:56.412Z,14.90
2019-03-13T03:02:48.456Z,14.33
2019-03-13T03:05:19.010Z,21.83
2019-03-13T03:07:49.649Z,18.77
2019-03-13T03:10:20.027Z,13.00
2019-03-13T03:12:50.639Z,35.70
2019-03-13T03:15:21.183Z,11.63
2019-03-13T03:17:51.576Z,18.40
2019-03-13T03:20:22.452Z,19.30
2019-03-13T03:22:53.004Z,13.87
2019-03-13T03:25:23.453Z,14.20
2019-03-13T03:27:54.128Z,15.97
2019-03-13T03:30:24.556Z,13.63
2019-03-13T03:32:57.260Z,17.83
2019-03-13T03:35:28.179Z,14.77
2019-03-13T03:37:58.590Z,20.50
2019-03-13T03:40:29.462Z,13.17
2019-03-13T03:42:59.952Z,26.47
2019-03-13T03:45:30.693Z,13.37
2019-03-13T03:48:01.264Z,16.93
2019-03-13T03:50:31.869Z,10.90
2019-03-13T03:53:02.351Z,20.43
2019-03-13T03:55:33.040Z,17.60
2019-03-13T03:58:03.435Z,16.73
2019-03-13T04:00:36.158Z,18.47
2019-03-13T04:03:07.311Z,25.00
2019-03-13T04:05:37.799Z,16.00
2019-03-13T04:08:08.195Z,10.97
2019-03-13T04:10:39.041Z,15.70
2019-03-13T04:13:09.441Z,27.83
2019-03-13T04:15:40.119Z,19.47
2019-03-13T04:18:10.588Z,26.50
2019-03-13T04:20:41.073Z,25.50
2019-03-13T04:23:11.461Z,19.03
2019-03-13T04:25:41.989Z,13.30
2019-03-13T04:28:12.565Z,13.93
2019-03-13T04:30:43.202Z,13.63
2019-03-13T04:33:13.526Z,15.87
2019-03-13T04:35:44.061Z,14.57
2019-03-13T04:38:14.618Z,9.50
2019-03-13T04:40:44.976Z,13.77
2019-03-13T04:43:15.333Z,11.63
2019-03-13T04:45:48.754Z,11.40
2019-03-13T04:48:19.387Z,20.97
2019-03-13T04:50:49.893Z,16.37
2019-03-13T04:53:20.330Z,26.37
2019-03-13T04:55:52.498Z,15.63
2019-03-13T04:58:23.008Z,17.13
2019-03-13T05:00:53.509Z,10.47
2019-03-13T05:03:24.039Z,16.33
2019-03-13T05:06:04.325Z,15.17
2019-03-13T05:09:08.770Z,12.40
2019-03-13T05:11:39.718Z,19.63
2019-03-13T05:14:10.208Z,20.30
2019-03-13T05:16:40.593Z,16.07
2019-03-13T05:19:12.793Z,16.87
2019-03-13T05:21:43.218Z,15.10
2019-03-13T05:24:13.587Z,19.73
2019-03-13T05:26:45.756Z,27.30
2019-03-13T05:29:16.573Z,19.10
2019-03-13T05:31:47.030Z,18.87
2019-03-13T05:34:18.179Z,24.00
2019-03-13T05:36:49.680Z,24.40
2019-03-13T05:39:20.296Z,20.97
2019-03-13T05:41:50.877Z,19.67
2019-03-13T05:44:21.408Z,24.43
2019-03-13T05:46:51.909Z,19.67
2019-03-13T05:49:22.271Z,25.40
2019-03-13T05:51:52.840Z,15.43
2019-03-13T05:54:23.565Z,20.80
2019-03-13T05:56:53.996Z,22.53
2019-03-13T05:59:24.583Z,21.17
2019-03-13T06:01:55.055Z,14.27
2019-03-13T06:04:25.640Z,23.37
2019-03-13T06:06:56.714Z,20.77
2019-03-13T06:09:28.845Z,27.53
2019-03-13T06:11:59.708Z,13.47
2019-03-13T06:14:30.935Z,24.90
2019-03-13T06:17:01.698Z,17.43
2019-03-13T06:19:32.429Z,21.63
2019-03-13T06:22:03.011Z,18.23
2019-03-13T06:24:33.655Z,25.13
2019-03-13T06:27:04.348Z,24.73
2019-03-13T06:29:35.069Z,21.97
2019-03-13T06:32:05.878Z,17.73
2019-03-13T06:34:36.675Z,23.23
2019-03-13T06:37:07.145Z,20.73
2019-03-13T06:39:40.424Z,34.70
2019-03-13T06:42:15.411Z,18.37
2019-03-13T06:44:45.848Z,24.53
2019-03-13T06:47:16.594Z,23.13
2019-03-13T06:49:47.719Z,27.10
2019-03-13T06:52:18.242Z,24.73
2019-03-13T06:54:49.200Z,21.30
2019-03-13T06:57:20.091Z,17.93
2019-03-13T07:00:09.666Z,27.73
2019-03-13T07:03:08.479Z,33.73
2019-03-13T07:05:56.797Z,25.13
2019-03-13T07:08:45.266Z,25.50
2019-03-13T07:11:36.403Z,37.77
2019-03-13T07:14:24.760Z,23.37
2019-03-13T07:17:07.991Z,33.50
2019-03-13T07:20:09.460Z,28.10
2019-03-13T07:22:58.320Z,20.57
2019-03-13T07:25:38.067Z,24.70
2019-03-13T07:28:29.345Z,27.93
2019-03-13T07:31:19.852Z,25.57
2019-03-13T07:34:08.636Z,23.47
2019-03-13T07:36:57.399Z,20.67
2019-03-13T07:39:45.943Z,29.50
2019-03-13T07:42:38.811Z,27.67
2019-03-13T07:45:29.395Z,26.87
2019-03-13T07:48:07.658Z,36.57
2019-03-13T07:51:15.452Z,26.77
2019-03-13T07:54:07.660Z,21.47
2019-03-13T07:57:03.182Z,22.40
2019-03-13T08:00:05.280Z,28.00
2019-03-13T08:02:55.476Z,31.70
2019-03-13T08:05:44.711Z,27.20
2019-03-13T08:08:34.390Z,21.80
2019-03-13T08:11:36.411Z,21.80
2019-03-13T08:14:28.450Z,21.73
2019-03-13T08:17:16.379Z,18.10
2019-03-13T08:19:57.949Z,22.27
2019-03-13T08:22:50.681Z,22.67
2019-03-13T08:25:39.886Z,17.43
2019-03-13T08:28:24.860Z,17.83
2019-03-13T08:31:14.435Z,21.70
2019-03-13T08:34:04.269Z,26.57
2019-03-13T08:36:55.696Z,9.67
2019-03-13T08:39:51.243Z,19.23
2019-03-13T08:42:31.692Z,18.60
2019-03-13T08:45:27.140Z,19.87
2019-03-13T08:48:14.401Z,23.80
2019-03-13T08:51:02.861Z,17.70
2019-03-13T08:53:58.876Z,11.40
2019-03-13T08:56:48.800Z,19.73
2019-03-13T09:00:03.600Z,20.00
2019-03-13T09:02:51.985Z,19.83
2019-03-13T09:05:45.042Z,23.93
2019-03-13T09:08:35.749Z,16.60
2019-03-13T09:11:23.519Z,16.33
2019-03-13T09:14:16.402Z,16.37
2019-03-13T09:19:51.786Z,36.10
2019-03-13T09:22:31.426Z,20.63
2019-03-13T09:25:21.105Z,15.00
2019-03-13T09:28:14.481Z,13.17
2019-03-13T09:31:13.664Z,22.13
2019-03-13T09:34:11.814Z,16.73
2019-03-13T09:37:01.567Z,19.73
2019-03-13T09:39:54.641Z,20.33
2019-03-13T09:42:46.497Z,10.93
2019-03-13T09:45:35.239Z,14.10
2019-03-13T09:48:37.086Z,12.93
2019-03-13T09:51:17.616Z,14.83
2019-03-13T09:54:16.191Z,21.43
2019-03-13T09:57:04.215Z,23.00
2019-03-13T09:59:47.124Z,26.57
2019-03-13T10:02:55.570Z,11.30
2019-03-13T10:05:43.630Z,25.73
2019-03-13T10:08:35.145Z,22.50
2019-03-13T10:11:22.510Z,12.60
2019-03-13T10:14:01.141Z,15.60
2019-03-13T10:16:52.944Z,15.70
2019-03-13T10:19:30.392Z,21.90
2019-03-13T10:22:08.240Z,18.37
2019-03-13T10:24:56.543Z,19.47
2019-03-13T10:27:34.386Z,21.43
2019-03-13T10:30:19.835Z,22.83
2019-03-13T10:33:13.081Z,17.20
2019-03-13T10:36:09.482Z,21.73
2019-03-13T10:39:07.560Z,16.30
2019-03-13T10:42:05.924Z,13.50
2019-03-13T10:45:01.181Z,12.13
2019-03-13T10:47:52.364Z,23.37
2019-03-13T10:50:41.713Z,12.80
2019-03-13T10:53:46.570Z,11.93
2019-03-13T10:56:40.092Z,16.97
2019-03-13T10:59:28.860Z,22.87
2019-03-13T11:02:24.361Z,12.77
2019-03-13T11:05:12.666Z,21.07
2019-03-13T11:08:06.556Z,11.37
2019-03-13T11:10:42.537Z,15.93
2019-03-13T11:13:45.600Z,10.20
2019-03-13T11:16:35.342Z,10.33
2019-03-13T11:19:43.441Z,15.60
2019-03-13T11:22:24.656Z,13.10
2019-03-13T11:25:03.451Z,8.07
2019-03-13T11:28:07.606Z,9.23
2019-03-13T11:31:01.336Z,9.27
2019-03-13T11:34:00.030Z,14.00
2019-03-13T11:36:50.344Z,13.77
2019-03-13T11:39:35.637Z,8.10
2019-03-13T11:42:27.273Z,13.67
2019-03-13T11:45:22.767Z,13.80
2019-03-13T11:48:15.501Z,15.90
2019-03-13T11:51:09.352Z,16.77
2019-03-13T11:54:07.057Z,6.40
2019-03-13T11:57:06.739Z,12.03
2019-03-13T11:59:47.527Z,14.43
2019-03-13T12:02:46.161Z,12.10
2019-03-13T12:05:25.441Z,12.97
2019-03-13T12:08:06.554Z,7.30
2019-03-13T12:10:47.015Z,11.87
2019-03-13T12:13:45.287Z,12.17
2019-03-13T12:16:44.792Z,13.00
2019-03-13T12:19:38.105Z,11.00
2019-03-13T12:22:22.796Z,12.37
2019-03-13T12:25:14.363Z,12.93
2019-03-13T12:27:59.727Z,18.10
2019-03-13T12:30:49.785Z,16.53
2019-03-13T12:33:30.457Z,12.03
2019-03-13T12:36:09.335Z,13.23
2019-03-13T12:39:00.268Z,15.47
2019-03-13T12:41:51.928Z,11.83
2019-03-13T12:44:43.366Z,11.83
2019-03-13T12:47:27.820Z,19.93
2019-03-13T12:50:26.262Z,18.50
2019-03-13T12:53:14.712Z,16.37
2019-03-13T12:56:04.736Z,13.03
2019-03-13T12:59:01.194Z,16.83
2019-03-13T13:02:03.461Z,14.73
2019-03-13T13:04:59.213Z,13.93
2019-03-13T13:07:47.081Z,21.27
2019-03-13T13:10:42.661Z,18.40
2019-03-13T13:13:33.582Z,11.33
2019-03-13T13:16:31.107Z,11.70
2019-03-13T13:18:58.941Z,10.17
2019-03-13T13:21:29.362Z,13.20
2019-03-13T13:23:59.940Z,19.63
2019-03-13T13:26:31.438Z,7.33
2019-03-13T13:29:03.967Z,17.67
2019-03-13T13:31:35.884Z,12.20
2019-03-13T13:34:07.362Z,15.50
2019-03-13T13:36:38.094Z,11.00
2019-03-13T13:39:09.693Z,14.10
2019-03-13T13:41:42.073Z,12.73
2019-03-13T13:44:16.310Z,14.87
2019-03-13T13:46:47.988Z,9.93
2019-03-13T13:49:18.671Z,8.67
2019-03-13T13:51:49.706Z,15.33
2019-03-13T13:54:23.951Z,6.70
2019-03-13T13:56:54.726Z,9.00
2019-03-13T13:59:25.552Z,11.53
2019-03-13T14:01:56.286Z,11.63
2019-03-13T14:04:26.953Z,16.40
2019-03-13T14:06:57.802Z,13.37
2019-03-13T14:09:29.108Z,11.23
2019-03-13T14:11:59.691Z,14.20
2019-03-13T14:14:31.782Z,10.97
2019-03-13T14:17:03.141Z,11.30
2019-03-13T14:19:34.877Z,17.80
2019-03-13T14:22:05.897Z,10.87
2019-03-13T14:24:36.791Z,8.37
2019-03-13T14:27:14.441Z,16.00
2019-03-13T14:29:43.558Z,8.03
2019-03-13T14:32:14.151Z,5.67
2019-03-13T14:34:46.822Z,5.33
2019-03-13T14:37:18.267Z,9.37
2019-03-13T14:39:49.098Z,11.07
2019-03-13T14:42:22.816Z,11.10
2019-03-13T14:44:54.231Z,8.17
2019-03-13T14:47:24.826Z,5.23
2019-03-13T14:49:55.623Z,8.97
2019-03-13T14:52:26.869Z,6.50
2019-03-13T14:54:59.561Z,8.73
2019-03-13T14:57:33.036Z,11.43
2019-03-13T15:00:05.791Z,8.70
2019-03-13T15:02:37.467Z,9.57
2019-03-13T15:05:09.579Z,9.97
2019-03-13T15:07:42.993Z,6.27
2019-03-13T15:10:14.463Z,6.60
2019-03-13T15:12:45.349Z,6.73
2019-03-13T15:15:18.602Z,6.30
2019-03-13T15:17:49.132Z,8.00
2019-03-13T15:20:20.146Z,6.50
2019-03-13T15:22:52.558Z,5.27
2019-03-13T15:25:23.809Z,8.97
2019-03-13T15:27:58.473Z,5.00
2019-03-13T15:30:30.763Z,8.07
2019-03-13T15:33:01.927Z,6.93
2019-03-13T15:35:33.636Z,9.77
2019-03-13T15:38:06.107Z,5.77
2019-03-13T15:40:37.908Z,9.93
2019-03-13T15:43:09.039Z,7.80
2019-03-13T15:45:42.727Z,11.60
2019-03-13T15:48:16.419Z,13.00
2019-03-13T15:51:23.707Z,9.40
2019-03-13T15:53:55.102Z,7.57
2019-03-13T15:56:26.391Z,10.40
2019-03-13T15:58:57.348Z,8.93
2019-03-13T16:01:28.552Z,8.23
2019-03-13T16:04:00.323Z,11.50
2019-03-13T16:06:37.352Z,8.47
2019-03-13T16:09:09.428Z,9.40
2019-03-13T16:11:42.884Z,15.10
2019-03-13T16:14:15.812Z,15.73
2019-03-13T16:16:48.485Z,11.10
2019-03-13T16:19:19.849Z,12.77
2019-03-13T16:21:50.989Z,15.20
2019-03-13T16:24:24.262Z,8.17
2019-03-13T16:26:58.028Z,16.33
2019-03-13T16:29:31.547Z,29.37
2019-03-13T16:32:02.314Z,27.40
2019-03-13T16:34:33.692Z,8.47
2019-03-13T16:37:08.458Z,17.03
2019-03-13T16:39:39.242Z,6.27
2019-03-13T16:42:11.583Z,6.83
2019-03-13T16:44:43.047Z,14.03
2019-03-13T16:47:14.583Z,14.10
2019-03-13T16:49:45.526Z,15.77
2019-03-13T16:52:16.769Z,12.73
2019-03-13T16:54:47.532Z,23.60
2019-03-13T16:57:18.988Z,14.07
2019-03-13T17:00:00.052Z,11.70
2019-03-13T17:02:25.120Z,8.07
2019-03-13T17:04:55.847Z,9.87
2019-03-13T17:07:26.433Z,14.83
2019-03-13T17:09:56.981Z,9.63
2019-03-13T17:12:27.617Z,12.97
2019-03-13T17:14:59.303Z,14.33
2019-03-13T17:17:31.083Z,10.97
2019-03-13T17:20:02.023Z,15.97
2019-03-13T17:22:35.321Z,17.77
2019-03-13T17:25:06.616Z,6.97
2019-03-13T17:27:37.218Z,14.90
2019-03-13T17:30:10.262Z,15.50
2019-03-13T17:32:41.534Z,11.70
2019-03-13T17:35:13.042Z,13.97
2019-03-13T17:37:50.649Z,14.47
2019-03-13T17:40:23.773Z,21.07
2019-03-13T17:43:01.263Z,11.47
2019-03-13T17:45:33.494Z,15.80
2019-03-13T17:48:12.778Z,11.83
2019-03-13T17:50:44.892Z,21.00
2019-03-13T17:53:20.705Z,17.93
2019-03-13T17:55:51.952Z,13.17
2019-03-13T17:58:23.649Z,22.13
2019-03-13T18:00:54.770Z,23.63
2019-03-13T18:03:25.593Z,15.07
2019-03-13T18:05:56.554Z,9.47
2019-03-13T18:08:34.314Z,9.90
2019-03-13T18:11:04.798Z,9.83
2019-03-13T18:13:35.507Z,17.53
2019-03-13T18:16:06.717Z,11.10
2019-03-13T18:18:37.326Z,15.77
2019-03-13T18:21:08.387Z,21.07
2019-03-13T18:23:38.989Z,15.77
2019-03-13T18:26:09.999Z,14.07
2019-03-13T18:28:40.960Z,8.90
2019-03-13T18:31:14.662Z,22.23
2019-03-13T18:33:45.427Z,12.80
2019-03-13T18:36:16.188Z,19.17
2019-03-13T18:38:46.901Z,18.73
2019-03-13T18:41:23.307Z,22.40
2019-03-13T18:43:54.209Z,22.50
2019-03-13T18:46:25.274Z,17.23
2019-03-13T18:48:56.228Z,30.43
2019-03-13T18:51:27.008Z,25.13
2019-03-13T18:53:57.739Z,22.63
2019-03-13T18:56:28.354Z,12.43
2019-03-13T18:58:59.127Z,18.97
2019-03-13T19:01:29.891Z,15.40
2019-03-13T19:04:00.737Z,19.97
2019-03-13T19:06:31.514Z,19.40
2019-03-13T19:09:03.174Z,28.40
2019-03-13T19:11:35.517Z,19.53
2019-03-13T19:14:06.201Z,22.83
2019-03-13T19:16:37.691Z,24.00
2019-03-13T19:19:08.743Z,23.77
2019-03-13T19:21:40.327Z,16.13
2019-03-13T19:24:14.054Z,21.40
2019-03-13T19:26:52.938Z,25.03
2019-03-13T19:29:26.226Z,19.87
2019-03-13T19:31:59.322Z,18.93
2019-03-13T19:34:34.148Z,32.47
2019-03-13T19:37:09.332Z,23.47
2019-03-13T19:39:40.600Z,17.53
2019-03-13T19:42:11.284Z,17.27
2019-03-13T19:44:42.647Z,16.40
2019-03-13T19:47:13.552Z,20.57
2019-03-13T19:49:44.446Z,29.77
2019-03-13T19:52:15.106Z,22.10
2019-03-13T19:54:47.305Z,25.27
2019-03-13T19:57:18.662Z,20.90
2019-03-13T19:59:49.730Z,17.40
2019-03-13T20:02:20.778Z,21.87
2019-03-13T20:04:51.944Z,27.20
2019-03-13T20:07:23.131Z,25.83
2019-03-13T20:09:55.027Z,22.40
2019-03-13T20:12:27.288Z,30.30
2019-03-13T20:14:59.360Z,28.23
2019-03-13T20:17:30.223Z,32.60
2019-03-13T20:20:02.290Z,17.03
2019-03-13T20:22:32.953Z,25.00
2019-03-13T20:25:07.217Z,28.10
2019-03-13T20:27:38.131Z,24.40
2019-03-13T20:30:15.818Z,21.33
2019-03-13T20:32:46.942Z,20.97
2019-03-13T20:35:17.789Z,31.30
2019-03-13T20:37:48.642Z,16.93
2019-03-13T20:40:21.455Z,39.03
2019-03-13T20:42:52.683Z,21.97
2019-03-13T20:45:23.922Z,28.47
2019-03-13T20:47:54.674Z,11.13
2019-03-13T20:50:36.693Z,21.33
2019-03-13T20:52:59.294Z,17.50
2019-03-13T20:55:29.952Z,22.63
2019-03-13T20:58:00.465Z,21.27
2019-03-13T21:00:35.349Z,35.60
2019-03-13T21:03:06.688Z,29.17
2019-03-13T21:05:37.772Z,27.03
2019-03-13T21:08:56.379Z,28.40
2019-03-13T21:11:27.055Z,28.73
2019-03-13T21:13:57.478Z,32.83
2019-03-13T21:16:27.865Z,30.10
2019-03-13T21:19:00.104Z,28.97
2019-03-13T21:21:30.775Z,40.13
2019-03-13T21:24:01.345Z,39.07
2019-03-13T21:26:32.035Z,37.50
2019-03-13T21:29:02.718Z,24.50
2019-03-13T21:31:33.557Z,14.80
2019-03-13T21:34:04.230Z,28.53
2019-03-13T21:36:34.913Z,26.67
2019-03-13T21:39:06.795Z,39.47
2019-03-13T21:41:40.638Z,41.43
2019-03-13T21:44:11.261Z,34.27
2019-03-13T21:46:42.291Z,33.30
2019-03-13T21:49:12.631Z,39.00
2019-03-13T21:51:43.381Z,39.77
2019-03-13T21:54:14.156Z,20.70
2019-03-13T21:56:44.701Z,22.50
2019-03-13T21:59:15.298Z,43.33
2019-03-13T22:01:45.973Z,37.47
2019-03-13T22:04:24.155Z,27.27
2019-03-13T22:06:48.656Z,29.17
2019-03-13T22:09:19.204Z,37.07
2019-03-13T22:11:49.960Z,29.80
2019-03-13T22:14:22.310Z,32.43
2019-03-13T22:16:52.899Z,38.67
2019-03-13T22:19:23.360Z,25.87
2019-03-13T22:21:54.005Z,22.80
2019-03-13T22:24:25.006Z,35.53
2019-03-13T22:26:55.532Z,22.97
2019-03-13T22:29:26.190Z,29.67
2019-03-13T22:31:56.580Z,32.20
2019-03-13T22:34:27.162Z,29.73
2019-03-13T22:36:57.743Z,36.17
2019-03-13T22:39:28.378Z,31.33
2019-03-13T22:41:58.775Z,30.33
2019-03-13T22:44:29.398Z,31.17
2019-03-13T22:46:59.866Z,32.67
2019-03-13T22:49:30.397Z,39.00
2019-03-13T22:52:01.227Z,31.23
2019-03-13T22:54:31.910Z,39.33
2019-03-13T22:57:02.595Z,39.83
2019-03-13T22:59:33.148Z,41.77
2019-03-13T23:02:04.179Z,21.60
2019-03-13T23:04:36.210Z,21.43
2019-03-13T23:07:07.500Z,21.50
2019-03-13T23:09:38.080Z,16.00
2019-03-13T23:12:08.700Z,29.30
2019-03-13T23:14:40.565Z,30.00
2019-03-13T23:17:11.105Z,29.17
2019-03-13T23:19:41.705Z,41.80
2019-03-13T23:22:12.184Z,45.63
2019-03-13T23:24:43.034Z,41.23
2019-03-13T23:27:13.375Z,52.17
2019-03-13T23:29:46.793Z,35.30
2019-03-13T23:32:17.259Z,28.20
2019-03-13T23:34:48.110Z,36.77
2019-03-13T23:37:18.565Z,31.57
2019-03-13T23:39:49.147Z,33.60
2019-03-13T23:42:19.930Z,31.13
2019-03-13T23:44:50.535Z,40.50
2019-03-13T23:47:20.955Z,35.37
2019-03-13T23:49:51.505Z,43.93
2019-03-13T23:52:22.170Z,36.90
2019-03-13T23:54:52.649Z,36.20
2019-03-13T23:57:23.309Z,27.87
2019-03-13T23:59:53.759Z,30.17
